Time;durP1;ratioP1;P1;durP2;ratioP2;P2;SDS_P1;SDS_P2;PMS_P1;PMS_P2;Temp;Humidity;BMP_temperature;BMP_pressure;BME280_temperature;BME280_humidity;BME280_pressure;Samples;Min_cycle;Max_cycle;Signal;HPM_P1;HPM_P2
2024/04/02 00:00:28;;;;;;;1.50;0.30;;;;;;;;;;5071385;28;20032;-64
2024/04/02 00:02:53;;;;;;;0.85;0.40;;;;;;;;;;5072165;28;20029;-64
2024/04/02 00:05:18;;;;;;;1.90;0.30;;;;;;;;;;5071646;28;20036;-67
2024/04/02 00:07:43;;;;;;;1.85;0.40;;;;;;;;;;5077078;28;20488;-67
2024/04/02 00:10:09;;;;;;;1.35;0.30;;;;;;;;;;5073439;28;20044;-64
2024/04/02 00:12:34;;;;;;;1.40;0.47;;;;;;;;;;5071946;28;20028;-66
2024/04/02 00:14:59;;;;;;;2.03;0.40;;;;;;;;;;5071534;28;20078;-65
2024/04/02 00:17:24;;;;;;;2.17;0.30;;;;;;;;;;5072075;28;20012;-66
2024/04/02 00:19:49;;;;;;;1.52;0.40;;;;;;;;;;5077908;28;20025;-66
2024/04/02 00:22:14;;;;;;;2.75;0.40;;;;;;;;;;5061696;28;20091;-65
2024/04/02 00:24:40;;;;;;;2.58;0.60;;;;;;;;;;4953633;28;20036;-66
2024/04/02 00:27:05;;;;;;;1.53;0.47;;;;;;;;;;4951637;28;20031;-66
2024/04/02 00:29:30;;;;;;;0.50;0.30;;;;;;;;;;4951678;28;20027;-65
2024/04/02 00:31:55;;;;;;;0.98;0.40;;;;;;;;;;4955264;28;20035;-64
2024/04/02 00:34:20;;;;;;;0.77;0.30;;;;;;;;;;4959968;28;20091;-67
2024/04/02 00:36:45;;;;;;;1.13;0.40;;;;;;;;;;4955142;28;20544;-64
2024/04/02 00:39:10;;;;;;;1.45;0.47;;;;;;;;;;4951967;28;20020;-66
2024/04/02 00:41:36;;;;;;;2.15;0.57;;;;;;;;;;4958838;28;20046;-65
2024/04/02 00:44:01;;;;;;;1.20;0.47;;;;;;;;;;4958411;28;20060;-65
2024/04/02 00:46:27;;;;;;;1.77;0.40;;;;;;;;;;4950209;28;20024;-64
2024/04/02 00:48:54;;;;;;;1.05;0.40;;;;;;;;;;4965530;28;20487;-63
2024/04/02 00:51:19;;;;;;;1.60;0.40;;;;;;;;;;4950296;28;20035;-64
2024/04/02 00:53:44;;;;;;;2.13;0.30;;;;;;;;;;4950480;28;20034;-64
2024/04/02 00:56:09;;;;;;;1.40;0.50;;;;;;;;;;4965039;28;20185;-63
2024/04/02 00:58:34;;;;;;;2.50;0.40;;;;;;;;;;5071285;28;20024;-64
2024/04/02 01:01:00;;;;;;;1.10;0.40;;;;;;;;;;5070378;28;20028;-63
2024/04/02 01:03:26;;;;;;;0.93;0.30;;;;;;;;;;5070694;28;20033;-66
2024/04/02 01:05:51;;;;;;;1.73;0.50;;;;;;;;;;5070530;28;20063;-66
2024/04/02 01:08:16;;;;;;;1.83;0.30;;;;;;;;;;5070999;28;20024;-64
2024/04/02 01:10:42;;;;;;;0.93;0.40;;;;;;;;;;5064230;28;20097;-64
2024/04/02 01:13:07;;;;;;;1.13;0.50;;;;;;;;;;5070739;28;20086;-65
2024/04/02 01:15:32;;;;;;;2.30;0.40;;;;;;;;;;5070720;28;20020;-63
2024/04/02 01:17:57;;;;;;;0.82;0.40;;;;;;;;;;5012498;28;20027;-65
2024/04/02 01:20:23;;;;;;;1.52;0.40;;;;;;;;;;4949905;28;20054;-65
2024/04/02 01:22:48;;;;;;;1.00;0.50;;;;;;;;;;4949839;28;20020;-66
2024/04/02 01:25:17;;;;;;;1.55;0.50;;;;;;;;;;4949843;28;20070;-64
2024/04/02 01:27:42;;;;;;;1.50;0.50;;;;;;;;;;4949563;28;20036;-65
2024/04/02 01:30:08;;;;;;;1.08;0.47;;;;;;;;;;4949772;28;20522;-65
2024/04/02 01:32:33;;;;;;;3.07;0.60;;;;;;;;;;4949880;28;20035;-65
2024/04/02 01:34:58;;;;;;;4.07;0.70;;;;;;;;;;4962562;28;20153;-65
2024/04/02 01:37:23;;;;;;;2.33;0.50;;;;;;;;;;4973842;28;20022;-64
2024/04/02 01:39:48;;;;;;;1.03;0.40;;;;;;;;;;4969894;28;20026;-65
2024/04/02 01:42:13;;;;;;;1.60;0.45;;;;;;;;;;4969410;28;20106;-65
2024/04/02 01:44:38;;;;;;;1.73;0.33;;;;;;;;;;4968847;28;20031;-65
2024/04/02 01:47:04;;;;;;;1.23;0.40;;;;;;;;;;4970478;28;20491;-64
2024/04/02 01:49:29;;;;;;;2.03;0.63;;;;;;;;;;4980008;28;20027;-65
2024/04/02 01:51:54;;;;;;;2.25;0.55;;;;;;;;;;4973036;28;20026;-65
2024/04/02 01:54:19;;;;;;;0.93;0.40;;;;;;;;;;4967784;28;20023;-67
2024/04/02 01:56:44;;;;;;;1.10;0.50;;;;;;;;;;5074211;28;20476;-64
2024/04/02 01:59:09;;;;;;;1.37;0.43;;;;;;;;;;5076418;28;20152;-65
2024/04/02 02:01:35;;;;;;;1.92;0.50;;;;;;;;;;5080276;28;20110;-66
2024/04/02 02:04:00;;;;;;;1.30;0.40;;;;;;;;;;5079055;28;20112;-67
2024/04/02 02:06:25;;;;;;;1.55;0.60;;;;;;;;;;5080032;28;20012;-65
2024/04/02 02:08:50;;;;;;;0.77;0.40;;;;;;;;;;5084388;28;20055;-66
2024/04/02 02:11:15;;;;;;;2.88;0.80;;;;;;;;;;5073907;28;20016;-65
2024/04/02 02:13:40;;;;;;;1.97;0.43;;;;;;;;;;5073413;28;20052;-65
2024/04/02 02:16:06;;;;;;;2.53;0.50;;;;;;;;;;5073426;28;20442;-64
2024/04/02 02:18:31;;;;;;;2.80;0.40;;;;;;;;;;5073626;28;20021;-64
2024/04/02 02:20:57;;;;;;;1.70;0.50;;;;;;;;;;5025139;28;20056;-64
2024/04/02 02:23:22;;;;;;;1.65;0.43;;;;;;;;;;4990696;28;20018;-65
2024/04/02 02:25:48;;;;;;;1.60;0.45;;;;;;;;;;4990511;28;20458;-65
2024/04/02 02:28:13;;;;;;;1.73;0.70;;;;;;;;;;4991003;28;20026;-65
2024/04/02 02:30:38;;;;;;;1.80;0.50;;;;;;;;;;4990553;28;20019;-67
2024/04/02 02:33:03;;;;;;;1.30;0.52;;;;;;;;;;4990523;28;20018;-65
2024/04/02 02:35:29;;;;;;;1.20;0.50;;;;;;;;;;4990357;28;20027;-65
2024/04/02 02:37:54;;;;;;;2.08;0.60;;;;;;;;;;4991056;28;20430;-64
2024/04/02 02:40:19;;;;;;;3.20;0.50;;;;;;;;;;4990599;28;20028;-66
2024/04/02 02:42:44;;;;;;;1.83;0.60;;;;;;;;;;4990978;28;20021;-64
2024/04/02 02:45:09;;;;;;;1.50;0.60;;;;;;;;;;4990657;28;20035;-63
2024/04/02 02:47:35;;;;;;;1.42;0.50;;;;;;;;;;4991281;28;20026;-65
2024/04/02 02:50:00;;;;;;;2.78;0.50;;;;;;;;;;4991282;28;20019;-64
2024/04/02 02:52:25;;;;;;;2.38;0.60;;;;;;;;;;4994251;28;20139;-65
2024/04/02 02:54:50;;;;;;;4.05;0.70;;;;;;;;;;5028660;28;20058;-65
2024/04/02 02:57:16;;;;;;;1.08;0.40;;;;;;;;;;5079350;28;20447;-65
2024/04/02 02:59:43;;;;;;;1.63;0.60;;;;;;;;;;5079601;28;20075;-66
2024/04/02 03:02:08;;;;;;;2.05;0.55;;;;;;;;;;4988126;28;20395;-65
2024/04/02 03:04:34;;;;;;;1.40;0.50;;;;;;;;;;4963777;28;20031;-64
2024/04/02 03:06:59;;;;;;;1.73;0.60;;;;;;;;;;4952201;28;20059;-65
2024/04/02 03:09:24;;;;;;;2.65;0.60;;;;;;;;;;4965961;28;20023;-64
2024/04/02 03:11:49;;;;;;;2.17;0.57;;;;;;;;;;5072820;28;20392;-64
2024/04/02 03:14:14;;;;;;;2.20;0.60;;;;;;;;;;5072832;28;20078;-64
2024/04/02 03:16:39;;;;;;;3.45;0.70;;;;;;;;;;5072838;28;20020;-63
2024/04/02 03:19:05;;;;;;;2.30;0.60;;;;;;;;;;5071335;28;20377;-64
2024/04/02 03:21:30;;;;;;;2.53;0.65;;;;;;;;;;5071093;28;20021;-65
2024/04/02 03:23:55;;;;;;;5.32;0.77;;;;;;;;;;5072296;28;20043;-67
2024/04/02 03:26:21;;;;;;;1.58;0.50;;;;;;;;;;5071913;28;20443;-65
2024/04/02 03:28:46;;;;;;;2.90;0.60;;;;;;;;;;5072331;28;20036;-65
2024/04/02 03:31:11;;;;;;;1.93;0.60;;;;;;;;;;5072074;28;20032;-64
2024/04/02 03:33:36;;;;;;;1.90;0.70;;;;;;;;;;5072216;28;20365;-65
2024/04/02 03:36:05;;;;;;;2.90;0.70;;;;;;;;;;5071960;28;20032;-66
2024/04/02 03:38:31;;;;;;;2.50;0.60;;;;;;;;;;5072254;28;20100;-65
2024/04/02 03:41:06;;;;;;;1.58;0.70;;;;;;;;;;5071927;28;20117;-65
2024/04/02 03:43:31;;;;;;;1.55;0.60;;;;;;;;;;5071864;28;20487;-66
2024/04/02 03:45:56;;;;;;;1.95;0.60;;;;;;;;;;5071594;28;20113;-64
2024/04/02 03:48:21;;;;;;;1.70;0.60;;;;;;;;;;5071953;28;20362;-64
2024/04/02 03:50:49;;;;;;;1.88;0.55;;;;;;;;;;5071962;28;20032;-64
2024/04/02 03:53:14;;;;;;;2.17;0.55;;;;;;;;;;5072062;28;20032;-65
2024/04/02 03:55:39;;;;;;;2.42;0.73;;;;;;;;;;4970888;28;20084;-65
2024/04/02 03:58:04;;;;;;;2.60;0.60;;;;;;;;;;4970979;28;20026;-65
2024/04/02 04:00:30;;;;;;;2.10;0.40;;;;;;;;;;4972311;28;20536;-64
2024/04/02 04:02:55;;;;;;;3.28;0.63;;;;;;;;;;4976890;28;20029;-64
2024/04/02 04:05:20;;;;;;;2.72;0.65;;;;;;;;;;4978168;28;20046;-64
2024/04/02 04:07:46;;;;;;;1.90;0.60;;;;;;;;;;4973857;28;20121;-65
2024/04/02 04:10:12;;;;;;;2.60;0.60;;;;;;;;;;4970722;28;20019;-64
2024/04/02 04:12:37;;;;;;;2.70;0.70;;;;;;;;;;4968896;28;20451;-66
2024/04/02 04:15:02;;;;;;;3.85;0.63;;;;;;;;;;4969960;28;20053;-65
2024/04/02 04:17:27;;;;;;;2.27;0.50;;;;;;;;;;4970039;28;20027;-65
2024/04/02 04:19:52;;;;;;;2.30;0.75;;;;;;;;;;4970258;28;20018;-66
2024/04/02 04:22:17;;;;;;;2.55;0.60;;;;;;;;;;4967823;28;20022;-64
2024/04/02 04:24:42;;;;;;;2.05;0.60;;;;;;;;;;4969605;28;20030;-65
2024/04/02 04:27:08;;;;;;;1.77;0.60;;;;;;;;;;4970287;28;20062;-64
2024/04/02 04:29:33;;;;;;;3.73;0.70;;;;;;;;;;4969400;28;20038;-64
2024/04/02 04:31:58;;;;;;;3.38;0.50;;;;;;;;;;4969982;28;20027;-64
2024/04/02 04:34:23;;;;;;;2.15;0.70;;;;;;;;;;4966813;28;20057;-66
2024/04/02 04:36:48;;;;;;;2.55;0.60;;;;;;;;;;4974474;28;20073;-65
2024/04/02 04:39:13;;;;;;;3.47;0.70;;;;;;;;;;4982345;28;20030;-64
2024/04/02 04:41:39;;;;;;;3.17;0.50;;;;;;;;;;4976700;28;20031;-69
2024/04/02 04:44:04;;;;;;;4.60;1.08;;;;;;;;;;4969997;28;20053;-65
2024/04/02 04:46:29;;;;;;;2.03;0.70;;;;;;;;;;4969832;28;20027;-64
2024/04/02 04:48:54;;;;;;;1.97;0.60;;;;;;;;;;4969843;28;20019;-64
2024/04/02 04:51:19;;;;;;;4.97;0.80;;;;;;;;;;4969287;28;20408;-64
2024/04/02 04:53:44;;;;;;;1.92;0.63;;;;;;;;;;5035304;28;20096;-66
2024/04/02 04:56:10;;;;;;;3.47;0.75;;;;;;;;;;5070926;28;20087;-65
2024/04/02 04:58:35;;;;;;;3.00;0.80;;;;;;;;;;5071131;28;20369;-65
2024/04/02 05:01:01;;;;;;;3.55;0.75;;;;;;;;;;5070556;28;20442;-64
2024/04/02 05:03:27;;;;;;;1.70;0.52;;;;;;;;;;5031112;28;20019;-63
2024/04/02 05:06:02;;;;;;;3.40;0.70;;;;;;;;;;4950241;28;20042;-64
2024/04/02 05:08:27;;;;;;;1.83;0.70;;;;;;;;;;4949882;28;20093;-65
2024/04/02 05:10:53;;;;;;;1.87;0.67;;;;;;;;;;4950093;28;20019;-66
2024/04/02 05:13:18;;;;;;;3.15;0.60;;;;;;;;;;4949973;28;20825;-65
2024/04/02 05:15:43;;;;;;;2.42;0.60;;;;;;;;;;4950017;28;20031;-66
2024/04/02 05:18:09;;;;;;;2.22;0.68;;;;;;;;;;4950049;28;20035;-65
2024/04/02 05:20:34;;;;;;;1.30;0.67;;;;;;;;;;4950104;28;20038;-65
2024/04/02 05:23:00;;;;;;;4.35;0.88;;;;;;;;;;4949325;28;20039;-65
2024/04/02 05:25:25;;;;;;;1.90;0.50;;;;;;;;;;4958804;28;20035;-64
2024/04/02 05:27:50;;;;;;;3.43;0.60;;;;;;;;;;4969320;28;20027;-64
2024/04/02 05:30:15;;;;;;;2.55;0.70;;;;;;;;;;4968842;28;20034;-64
2024/04/02 05:32:40;;;;;;;2.97;0.80;;;;;;;;;;4968709;28;20076;-65
2024/04/02 05:35:06;;;;;;;2.63;0.60;;;;;;;;;;4968998;28;20133;-66
2024/04/02 05:37:31;;;;;;;2.65;0.50;;;;;;;;;;4968990;28;20049;-64
2024/04/02 05:39:56;;;;;;;3.38;0.70;;;;;;;;;;4969018;28;20035;-63
2024/04/02 05:42:21;;;;;;;2.10;0.50;;;;;;;;;;4970062;28;20108;-64
2024/04/02 05:44:47;;;;;;;2.93;0.60;;;;;;;;;;4971954;28;20474;-65
2024/04/02 05:47:12;;;;;;;3.95;0.70;;;;;;;;;;4972244;28;20023;-66
2024/04/02 05:49:37;;;;;;;2.90;0.60;;;;;;;;;;4972354;28;20102;-64
2024/04/02 05:52:02;;;;;;;4.20;0.57;;;;;;;;;;4998931;28;20027;-65
2024/04/02 05:54:28;;;;;;;2.37;0.77;;;;;;;;;;5014594;28;20033;-66
2024/04/02 05:56:53;;;;;;;1.70;0.50;;;;;;;;;;4971614;28;20434;-66
2024/04/02 05:59:18;;;;;;;2.08;0.70;;;;;;;;;;4972068;28;20080;-65
2024/04/02 06:01:43;;;;;;;2.93;0.80;;;;;;;;;;4969909;28;20072;-64
2024/04/02 06:04:08;;;;;;;2.58;0.55;;;;;;;;;;4969996;28;20066;-66
2024/04/02 06:06:33;;;;;;;1.55;0.60;;;;;;;;;;4971750;28;20042;-65
2024/04/02 06:08:59;;;;;;;2.65;0.68;;;;;;;;;;4972098;28;20031;-66
2024/04/02 06:11:24;;;;;;;4.28;0.60;;;;;;;;;;4972741;28;20517;-64
2024/04/02 06:13:49;;;;;;;3.30;0.60;;;;;;;;;;4975044;28;20056;-63
2024/04/02 06:16:14;;;;;;;2.05;0.60;;;;;;;;;;4974983;28;20026;-64
2024/04/02 06:18:39;;;;;;;4.05;0.70;;;;;;;;;;4974511;28;20035;-66
2024/04/02 06:21:04;;;;;;;2.23;0.60;;;;;;;;;;4975011;28;20075;-66
2024/04/02 06:23:29;;;;;;;4.45;0.70;;;;;;;;;;4974030;28;20027;-64
2024/04/02 06:25:55;;;;;;;3.87;0.87;;;;;;;;;;4970810;28;20471;-65
2024/04/02 06:28:20;;;;;;;2.40;0.50;;;;;;;;;;4970479;28;20384;-64
2024/04/02 06:30:45;;;;;;;4.70;0.60;;;;;;;;;;4971908;28;20538;-64
2024/04/02 06:33:10;;;;;;;2.25;0.70;;;;;;;;;;4967527;28;20403;-65
2024/04/02 06:35:35;;;;;;;2.77;0.53;;;;;;;;;;4970169;28;20445;-66
2024/04/02 06:38:01;;;;;;;2.35;0.50;;;;;;;;;;4969718;28;20038;-68
2024/04/02 06:40:26;;;;;;;2.07;0.60;;;;;;;;;;4970345;28;20027;-65
2024/04/02 06:42:51;;;;;;;3.57;0.60;;;;;;;;;;4969850;28;20037;-68
2024/04/02 06:45:16;;;;;;;2.93;0.70;;;;;;;;;;4970891;28;20098;-66
2024/04/02 06:47:41;;;;;;;2.90;0.60;;;;;;;;;;4970833;28;20023;-67
2024/04/02 06:50:06;;;;;;;3.78;0.60;;;;;;;;;;5073248;28;20020;-65
2024/04/02 06:52:32;;;;;;;1.45;0.50;;;;;;;;;;5072493;28;20024;-65
2024/04/02 06:54:57;;;;;;;2.83;0.75;;;;;;;;;;5072811;28;20021;-65
2024/04/02 06:57:22;;;;;;;3.67;0.70;;;;;;;;;;5072926;28;20017;-65
2024/04/02 06:59:48;;;;;;;2.10;0.52;;;;;;;;;;5073141;28;20087;-65
2024/04/02 07:02:13;;;;;;;3.83;0.70;;;;;;;;;;5072741;28;20021;-65
2024/04/02 07:04:39;;;;;;;2.55;0.57;;;;;;;;;;4998654;28;20055;-65
2024/04/02 07:07:04;;;;;;;1.30;0.40;;;;;;;;;;4970945;28;20513;-65
2024/04/02 07:09:30;;;;;;;3.63;0.60;;;;;;;;;;4970046;28;20046;-63
2024/04/02 07:11:55;;;;;;;2.33;0.68;;;;;;;;;;4974576;28;20084;-64
2024/04/02 07:14:20;;;;;;;2.90;0.60;;;;;;;;;;4972205;28;20092;-65
2024/04/02 07:16:45;;;;;;;3.37;0.60;;;;;;;;;;4972434;28;20019;-65
2024/04/02 07:19:10;;;;;;;2.57;0.60;;;;;;;;;;4973885;28;20627;-64
2024/04/02 07:21:35;;;;;;;2.65;0.45;;;;;;;;;;4974668;28;20027;-67
2024/04/02 07:24:01;;;;;;;2.00;0.60;;;;;;;;;;4977235;28;20038;-66
2024/04/02 07:26:26;;;;;;;2.50;0.40;;;;;;;;;;4977310;28;20031;-66
2024/04/02 07:28:51;;;;;;;4.03;0.80;;;;;;;;;;4982615;28;20041;-65
2024/04/02 07:31:16;;;;;;;2.67;0.70;;;;;;;;;;4983651;28;20031;-66
2024/04/02 07:33:41;;;;;;;1.90;0.40;;;;;;;;;;4981838;28;20087;-64
2024/04/02 07:36:07;;;;;;;2.10;0.57;;;;;;;;;;4981027;28;20033;-65
2024/04/02 07:38:32;;;;;;;2.85;0.50;;;;;;;;;;4977407;28;20027;-65
2024/04/02 07:40:58;;;;;;;2.63;0.63;;;;;;;;;;4972840;28;20019;-65
2024/04/02 07:43:24;;;;;;;4.53;0.73;;;;;;;;;;4973671;28;20473;-65
2024/04/02 07:45:50;;;;;;;3.63;0.60;;;;;;;;;;4971082;28;20491;-65
2024/04/02 07:48:15;;;;;;;2.72;0.70;;;;;;;;;;4971545;28;20022;-66
2024/04/02 07:50:40;;;;;;;3.75;0.60;;;;;;;;;;5008415;28;20016;-66
2024/04/02 07:53:05;;;;;;;1.63;0.40;;;;;;;;;;4970601;28;20035;-64
2024/04/02 07:55:30;;;;;;;3.65;0.50;;;;;;;;;;4970655;28;20494;-66
2024/04/02 07:57:55;;;;;;;4.57;0.60;;;;;;;;;;4968091;28;20058;-66
2024/04/02 08:00:20;;;;;;;3.67;0.80;;;;;;;;;;4968789;28;20027;-66
2024/04/02 08:02:49;;;;;;;1.53;0.40;;;;;;;;;;4951789;28;20042;-65
2024/04/02 08:05:14;;;;;;;5.05;0.73;;;;;;;;;;4966343;28;20521;-65
2024/04/02 08:07:46;;;;;;;3.67;0.60;;;;;;;;;;4970648;28;20026;-65
2024/04/02 08:10:11;;;;;;;3.45;0.52;;;;;;;;;;4970948;28;20494;-65
2024/04/02 08:12:37;;;;;;;3.80;0.88;;;;;;;;;;4970826;28;20104;-67
2024/04/02 08:15:02;;;;;;;2.93;0.53;;;;;;;;;;4970508;28;20030;-66
2024/04/02 08:17:27;;;;;;;3.43;0.67;;;;;;;;;;4969351;28;20033;-65
2024/04/02 08:19:52;;;;;;;3.03;0.50;;;;;;;;;;4970489;28;20977;-65
2024/04/02 08:22:18;;;;;;;3.17;0.60;;;;;;;;;;4970728;28;20029;-66
2024/04/02 08:24:43;;;;;;;3.03;0.50;;;;;;;;;;4965913;28;20067;-64
2024/04/02 08:27:09;;;;;;;3.50;0.50;;;;;;;;;;5002505;28;20039;-65
2024/04/02 08:29:35;;;;;;;4.10;0.60;;;;;;;;;;5051909;28;20039;-65
2024/04/02 08:32:00;;;;;;;3.33;0.60;;;;;;;;;;4969916;28;20054;-64
2024/04/02 08:34:25;;;;;;;1.53;0.40;;;;;;;;;;4969735;28;20042;-65
2024/04/02 08:36:51;;;;;;;6.13;0.70;;;;;;;;;;4970290;28;20023;-67
2024/04/02 08:39:17;;;;;;;4.23;0.60;;;;;;;;;;5050755;28;20016;-66
2024/04/02 08:41:42;;;;;;;2.95;0.47;;;;;;;;;;5073118;28;20068;-67
2024/04/02 08:44:07;;;;;;;2.77;0.70;;;;;;;;;;5027828;28;20168;-68
2024/04/02 08:46:33;;;;;;;2.25;0.60;;;;;;;;;;4957193;28;20023;-66
2024/04/02 08:48:58;;;;;;;6.97;0.65;;;;;;;;;;5066056;28;20021;-65
2024/04/02 08:51:23;;;;;;;3.55;0.57;;;;;;;;;;5071242;28;20388;-67
2024/04/02 08:53:49;;;;;;;5.10;0.70;;;;;;;;;;5066597;28;20396;-68
2024/04/02 08:56:14;;;;;;;3.53;0.63;;;;;;;;;;5070640;28;20024;-66
2024/04/02 08:58:40;;;;;;;2.58;0.60;;;;;;;;;;5071097;28;20032;-67
2024/04/02 09:01:05;;;;;;;2.55;0.50;;;;;;;;;;5071020;28;20023;-65
2024/04/02 09:03:31;;;;;;;5.50;0.70;;;;;;;;;;5040781;28;20049;-65
2024/04/02 09:06:03;;;;;;;7.32;0.80;;;;;;;;;;4959432;28;20122;-66
2024/04/02 09:08:29;;;;;;;5.72;0.75;;;;;;;;;;4969495;28;20023;-66
2024/04/02 09:10:54;;;;;;;3.25;0.52;;;;;;;;;;4969618;28;20025;-65
2024/04/02 09:13:20;;;;;;;7.68;0.65;;;;;;;;;;4969547;28;20114;-66
2024/04/02 09:15:46;;;;;;;3.08;0.70;;;;;;;;;;4970102;28;20479;-65
2024/04/02 09:18:11;;;;;;;3.53;0.70;;;;;;;;;;4971696;28;20384;-66
2024/04/02 09:20:37;;;;;;;3.35;0.70;;;;;;;;;;4957957;28;20030;-66
2024/04/02 09:23:03;;;;;;;1.60;0.40;;;;;;;;;;4953279;28;20034;-66
2024/04/02 09:25:29;;;;;;;2.53;0.57;;;;;;;;;;4959758;28;20030;-64
2024/04/02 09:27:55;;;;;;;2.55;0.40;;;;;;;;;;4972979;28;20483;-65
2024/04/02 09:30:24;;;;;;;2.40;0.50;;;;;;;;;;4976732;28;20022;-66
2024/04/02 09:32:51;;;;;;;8.68;0.82;;;;;;;;;;4968387;28;20041;-65
2024/04/02 09:35:23;;;;;;;7.35;1.00;;;;;;;;;;4972230;28;20483;-67
2024/04/02 09:37:49;;;;;;;4.70;0.63;;;;;;;;;;4972863;28;20038;-65
2024/04/02 09:40:15;;;;;;;3.13;0.70;;;;;;;;;;4972359;28;20019;-66
2024/04/02 09:42:47;;;;;;;4.50;0.70;;;;;;;;;;4972232;28;20029;-67
2024/04/02 09:45:12;;;;;;;7.65;0.60;;;;;;;;;;4972016;28;20022;-66
2024/04/02 09:47:38;;;;;;;2.63;0.50;;;;;;;;;;4997961;28;20456;-65
2024/04/02 09:50:03;;;;;;;5.13;0.50;;;;;;;;;;5074647;28;20286;-66
2024/04/02 09:52:29;;;;;;;3.45;0.60;;;;;;;;;;4987272;28;20050;-65
2024/04/02 09:54:54;;;;;;;1.65;0.40;;;;;;;;;;4971601;28;20030;-64
2024/04/02 09:57:21;;;;;;;2.63;0.60;;;;;;;;;;4972233;28;20049;-65
2024/04/02 09:59:46;;;;;;;3.15;0.50;;;;;;;;;;4972222;28;20491;-64
2024/04/02 10:02:14;;;;;;;3.83;0.50;;;;;;;;;;4972852;28;20058;-67
2024/04/02 10:04:40;;;;;;;2.53;0.80;;;;;;;;;;4974106;28;20035;-66
2024/04/02 10:07:05;;;;;;;2.67;0.60;;;;;;;;;;4967472;28;20025;-66
2024/04/02 10:09:42;;;;;;;5.25;0.52;;;;;;;;;;4955642;28;20047;-65
2024/04/02 10:12:07;;;;;;;4.88;0.60;;;;;;;;;;4954590;28;20117;-66
2024/04/02 10:14:36;;;;;;;4.88;0.50;;;;;;;;;;4955908;28;20481;-66
2024/04/02 10:17:01;;;;;;;3.53;0.68;;;;;;;;;;4962230;28;20058;-67
2024/04/02 10:19:29;;;;;;;3.22;0.65;;;;;;;;;;4979585;28;20019;-64
2024/04/02 10:21:54;;;;;;;4.38;0.55;;;;;;;;;;4964837;28;20031;-65
2024/04/02 10:24:20;;;;;;;4.85;0.60;;;;;;;;;;4977967;28;20098;-68
2024/04/02 10:26:50;;;;;;;2.63;0.60;;;;;;;;;;4984174;28;20027;-65
2024/04/02 10:29:15;;;;;;;2.15;0.50;;;;;;;;;;4986552;28;20019;-67
2024/04/02 10:31:41;;;;;;;5.10;0.47;;;;;;;;;;4980223;28;20415;-65
2024/04/02 10:34:10;;;;;;;3.88;0.68;;;;;;;;;;4969249;28;20077;-66
2024/04/02 10:36:36;;;;;;;6.03;0.50;;;;;;;;;;4965089;29;20666;-66
2024/04/02 10:39:01;;;;;;;4.07;0.52;;;;;;;;;;4970234;28;20034;-69
2024/04/02 10:41:29;;;;;;;2.70;0.43;;;;;;;;;;4974559;28;20019;-66
2024/04/02 10:43:54;;;;;;;5.60;0.70;;;;;;;;;;4953942;28;20474;-65
2024/04/02 10:46:19;;;;;;;4.55;0.50;;;;;;;;;;4970522;28;20031;-66
2024/04/02 10:48:44;;;;;;;3.92;0.40;;;;;;;;;;4970713;28;20510;-66
2024/04/02 10:51:09;;;;;;;5.65;0.57;;;;;;;;;;4970729;28;20057;-65
2024/04/02 10:53:35;;;;;;;7.90;0.90;;;;;;;;;;4972649;28;20110;-64
2024/04/02 10:56:00;;;;;;;4.65;0.52;;;;;;;;;;4957090;28;20027;-67
2024/04/02 10:58:26;;;;;;;6.03;0.60;;;;;;;;;;4952289;29;20042;-67
2024/04/02 11:00:51;;;;;;;2.53;0.52;;;;;;;;;;5015716;28;20044;-64
2024/04/02 11:03:17;;;;;;;2.50;0.50;;;;;;;;;;5078693;28;20021;-67
2024/04/02 11:05:43;;;;;;;3.00;0.50;;;;;;;;;;5080517;28;20029;-67
2024/04/02 11:08:09;;;;;;;3.03;0.57;;;;;;;;;;4997341;28;20466;-65
2024/04/02 11:10:34;;;;;;;2.38;0.45;;;;;;;;;;4954689;28;20031;-64
2024/04/02 11:12:59;;;;;;;3.78;0.50;;;;;;;;;;4952414;28;20027;-67
2024/04/02 11:15:24;;;;;;;4.68;0.60;;;;;;;;;;4966016;28;20045;-65
2024/04/02 11:17:49;;;;;;;2.03;0.37;;;;;;;;;;4972727;28;20042;-64
2024/04/02 11:20:15;;;;;;;3.75;0.47;;;;;;;;;;4973080;28;20041;-66
2024/04/02 11:25:25;;;;;;;2.72;0.73;;;;;;;;;;4996799;28;20462;-65
2024/04/02 11:27:51;;;;;;;3.45;0.70;;;;;;;;;;5073828;28;20431;-65
2024/04/02 11:30:17;;;;;;;1.63;0.40;;;;;;;;;;5071135;28;20560;-65
2024/04/02 11:32:42;;;;;;;4.85;0.70;;;;;;;;;;5072537;28;20114;-66
2024/04/02 11:35:14;;;;;;;3.40;0.63;;;;;;;;;;5072405;28;20017;-66
2024/04/02 11:37:40;;;;;;;2.15;0.50;;;;;;;;;;5062267;28;20028;-65
2024/04/02 11:40:07;;;;;;;3.53;0.57;;;;;;;;;;4969702;28;20026;-66
2024/04/02 11:42:33;;;;;;;4.47;0.57;;;;;;;;;;4970655;28;20023;-64
2024/04/02 11:45:00;;;;;;;1.33;0.40;;;;;;;;;;4994540;28;20031;-66
2024/04/02 11:47:25;;;;;;;2.30;0.50;;;;;;;;;;5072285;28;20035;-67
2024/04/02 11:49:51;;;;;;;2.05;0.40;;;;;;;;;;5072656;28;20465;-66
2024/04/02 11:52:16;;;;;;;2.80;0.40;;;;;;;;;;5055624;28;20268;-66
2024/04/02 11:54:41;;;;;;;2.50;0.43;;;;;;;;;;4970304;28;20034;-65
2024/04/02 12:02:35;;;;;;;2.72;0.50;;;;;;;;;;4957289;28;20149;-66
2024/04/02 12:05:01;;;;;;;2.70;0.40;;;;;;;;;;4971399;28;20047;-65
2024/04/02 12:07:27;;;;;;;4.00;0.60;;;;;;;;;;4977071;28;20031;-65
2024/04/02 12:09:55;;;;;;;3.05;1.08;;;;;;;;;;4976177;28;20027;-65
2024/04/02 12:12:20;;;;;;;5.25;0.70;;;;;;;;;;4977256;28;20023;-68
2024/04/02 12:14:46;;;;;;;2.33;0.43;;;;;;;;;;4980175;28;20121;-66
2024/04/02 12:17:11;;;;;;;2.10;0.52;;;;;;;;;;4984353;28;20058;-65
2024/04/02 12:19:36;;;;;;;1.77;0.43;;;;;;;;;;4978058;28;20027;-66
2024/04/02 12:22:01;;;;;;;2.67;0.40;;;;;;;;;;4978482;28;20371;-66
2024/04/02 12:24:27;;;;;;;2.00;0.40;;;;;;;;;;4975907;28;20125;-65
2024/04/02 12:26:52;;;;;;;2.33;0.28;;;;;;;;;;4971069;28;20023;-67
2024/04/02 12:29:17;;;;;;;4.32;0.65;;;;;;;;;;4971121;28;20497;-65
2024/04/02 12:31:42;;;;;;;1.37;0.40;;;;;;;;;;4970486;28;20047;-65
2024/04/02 12:34:09;;;;;;;1.90;0.30;;;;;;;;;;4970421;28;20027;-66
2024/04/02 12:36:34;;;;;;;1.48;0.40;;;;;;;;;;4985808;28;20101;-66
2024/04/02 12:38:59;;;;;;;1.55;0.20;;;;;;;;;;4989958;28;20057;-66
2024/04/02 12:41:24;;;;;;;1.52;0.40;;;;;;;;;;4988232;28;20026;-66
2024/04/02 12:43:50;;;;;;;1.45;0.28;;;;;;;;;;5011124;28;20021;-66
2024/04/02 12:46:15;;;;;;;2.35;0.40;;;;;;;;;;5071083;28;20119;-66
2024/04/02 12:48:40;;;;;;;1.17;0.20;;;;;;;;;;5069648;28;20013;-64
2024/04/02 12:51:05;;;;;;;2.93;0.50;;;;;;;;;;5070968;28;20020;-66
2024/04/02 12:53:30;;;;;;;1.37;0.40;;;;;;;;;;5002256;28;20027;-66
2024/04/02 12:55:55;;;;;;;1.08;0.35;;;;;;;;;;4949442;28;20039;-65
2024/04/02 12:58:21;;;;;;;1.45;0.32;;;;;;;;;;4962540;28;20026;-67
2024/04/02 13:00:46;;;;;;;2.20;0.43;;;;;;;;;;4969928;28;20060;-67
2024/04/02 13:03:11;;;;;;;1.27;0.33;;;;;;;;;;4969638;28;20023;-66
2024/04/02 13:05:37;;;;;;;2.00;0.40;;;;;;;;;;4969721;28;20160;-67
2024/04/02 13:08:03;;;;;;;1.58;0.52;;;;;;;;;;4972374;28;20019;-65
2024/04/02 13:10:28;;;;;;;1.90;0.50;;;;;;;;;;4969906;28;20046;-65
2024/04/02 13:12:53;;;;;;;2.80;0.50;;;;;;;;;;4971135;28;20055;-66
2024/04/02 13:15:18;;;;;;;1.23;0.40;;;;;;;;;;4968072;28;20111;-69
2024/04/02 13:17:44;;;;;;;0.70;0.33;;;;;;;;;;4972320;28;20027;-67
2024/04/02 13:20:09;;;;;;;2.13;0.50;;;;;;;;;;4972818;28;20015;-66
2024/04/02 13:22:34;;;;;;;3.25;0.50;;;;;;;;;;4962442;28;20027;-66
2024/04/02 13:24:59;;;;;;;1.80;0.40;;;;;;;;;;4955595;28;20106;-67
2024/04/02 13:27:24;;;;;;;2.67;0.57;;;;;;;;;;5071634;28;20477;-65
2024/04/02 13:29:51;;;;;;;2.10;0.30;;;;;;;;;;5069979;28;20038;-65
2024/04/02 13:32:16;;;;;;;1.45;0.50;;;;;;;;;;5033912;28;20039;-65
2024/04/02 13:34:43;;;;;;;0.83;0.40;;;;;;;;;;4950614;28;20031;-65
2024/04/02 13:37:10;;;;;;;2.85;0.40;;;;;;;;;;4954806;28;20046;-66
2024/04/02 13:39:35;;;;;;;1.63;0.40;;;;;;;;;;4968109;28;20038;-66
2024/04/02 13:42:00;;;;;;;1.83;0.50;;;;;;;;;;4977217;28;20015;-66
2024/04/02 13:44:26;;;;;;;1.97;0.30;;;;;;;;;;5071085;28;20043;-65
2024/04/02 13:46:51;;;;;;;1.63;0.50;;;;;;;;;;5070993;28;20091;-66
2024/04/02 13:49:16;;;;;;;3.33;0.50;;;;;;;;;;5071392;28;20023;-64
2024/04/02 13:51:42;;;;;;;1.05;0.30;;;;;;;;;;5071290;28;20036;-65
2024/04/02 13:54:07;;;;;;;0.85;0.50;;;;;;;;;;5049741;28;20080;-64
2024/04/02 13:56:32;;;;;;;2.78;0.50;;;;;;;;;;4968527;28;20039;-64
2024/04/02 13:58:58;;;;;;;1.50;0.30;;;;;;;;;;4969568;28;20469;-64
2024/04/02 14:01:23;;;;;;;1.48;0.32;;;;;;;;;;4969436;28;20095;-66
2024/04/02 14:03:48;;;;;;;1.15;0.40;;;;;;;;;;4971135;28;20022;-65
2024/04/02 14:06:14;;;;;;;3.67;0.50;;;;;;;;;;4972398;28;20041;-65
2024/04/02 14:08:42;;;;;;;1.58;0.30;;;;;;;;;;4970542;28;20099;-66
2024/04/02 14:11:17;;;;;;;1.13;0.32;;;;;;;;;;4970814;28;20023;-64
2024/04/02 14:13:44;;;;;;;1.30;0.40;;;;;;;;;;4970610;28;20075;-65
2024/04/02 14:16:09;;;;;;;;;;;;;;;;;;4973450;28;20360;-63
2024/04/02 14:18:34;;;;;;;2.10;0.38;;;;;;;;;;4971396;28;19914;-65
2024/04/02 14:21:04;;;;;;;3.57;0.57;;;;;;;;;;4970402;28;20027;-67
2024/04/02 14:23:30;;;;;;;2.67;0.40;;;;;;;;;;4972043;28;20536;-65
2024/04/02 14:25:59;;;;;;;3.17;0.45;;;;;;;;;;4972119;28;20149;-65
2024/04/02 14:28:24;;;;;;;2.38;0.52;;;;;;;;;;4970903;28;20030;-66
2024/04/02 14:30:50;;;;;;;3.63;0.40;;;;;;;;;;4973987;28;20023;-67
2024/04/02 14:33:15;;;;;;;2.05;0.50;;;;;;;;;;4977979;28;20046;-65
2024/04/02 14:35:48;;;;;;;1.10;0.30;;;;;;;;;;4964067;28;20025;-65
2024/04/02 14:38:13;;;;;;;1.67;0.50;;;;;;;;;;4967756;28;20018;-66
2024/04/02 14:40:42;;;;;;;3.40;0.57;;;;;;;;;;4987230;28;20029;-70